Time;durP1;ratioP1;P1;durP2;ratioP2;P2;SDS_P1;SDS_P2;PMS_P1;PMS_P2;Temp;Humidity;BMP_temperature;BMP_pressure;BME280_temperature;BME280_humidity;BME280_pressure;Samples;Min_cycle;Max_cycle;Signal;HPM_P1;HPM_P2
2022/10/13 00:01:09;;;;;;;6.63;4.10;;;;;;;8.88;100.00;98903.59;15286146;19;20019;-78
2022/10/13 00:06:35;;;;;;;8.63;4.15;;;;;;;8.83;100.00;98897.78;15293386;19;20010;-79
2022/10/13 00:12:02;;;;;;;10.40;3.90;;;;;;;8.81;100.00;98903.28;15289507;19;20019;-77
2022/10/13 00:17:29;;;;;;;6.47;3.80;;;;;;;8.77;100.00;98893.78;15292992;19;20022;-79
2022/10/13 00:22:54;;;;;;;7.18;4.18;;;;;;;8.72;100.00;98909.50;15290866;19;20007;-78
2022/10/13 00:28:19;;;;;;;9.88;3.90;;;;;;;8.71;100.00;98924.75;15290457;19;20756;-79
2022/10/13 00:33:48;;;;;;;5.57;3.85;;;;;;;8.78;100.00;98919.69;15287646;19;20042;-78
2022/10/13 00:39:13;;;;;;;8.55;3.67;;;;;;;8.81;100.00;98908.66;15292528;19;20019;-78
2022/10/13 00:45:06;;;;;;;7.03;4.03;;;;;;;8.87;100.00;98915.31;15294893;19;20354;-78
2022/10/13 00:50:37;;;;;;;;;;;;;;;8.89;100.00;98913.34;15293320;19;20038;-78
2022/10/13 00:56:03;;;;;;;8.85;4.15;;;;;;;8.80;100.00;98912.34;15312655;19;19919;-79
2022/10/13 01:01:29;;;;;;;9.43;4.10;;;;;;;8.78;100.00;98911.63;15322139;19;20022;-78
2022/10/13 01:06:57;;;;;;;6.75;4.22;;;;;;;8.76;100.00;98908.25;15294898;19;20010;-78
2022/10/13 01:12:37;;;;;;;7.30;4.38;;;;;;;8.78;100.00;98914.31;15294982;19;20035;-77
2022/10/13 01:18:10;;;;;;;8.32;4.47;;;;;;;8.73;100.00;98913.88;15297491;19;20017;-81
2022/10/13 01:24:25;;;;;;;8.23;4.68;;;;;;;8.76;100.00;98908.25;15293028;19;20491;-80
2022/10/13 01:30:21;;;;;;;7.45;4.68;;;;;;;8.74;100.00;98912.91;14784459;19;10000314;-80
2022/10/13 01:36:07;;;;;;;9.32;4.93;;;;;;;8.73;100.00;98901.28;15289949;19;20086;-82
2022/10/13 01:41:37;;;;;;;7.72;5.00;;;;;;;8.69;100.00;98905.25;15289149;19;20026;-81
2022/10/13 01:47:11;;;;;;;8.32;5.03;;;;;;;8.71;100.00;98894.38;15288551;19;20070;-83
2022/10/13 01:52:39;;;;;;;8.32;5.20;;;;;;;8.70;100.00;98890.81;15295524;19;20014;-84
2022/10/13 01:58:04;;;;;;;11.68;5.50;;;;;;;8.70;100.00;98873.84;15299311;19;20021;-82
2022/10/13 02:03:40;;;;;;;8.02;5.28;;;;;;;8.68;100.00;98873.13;15302467;19;20097;-84
2022/10/13 02:09:13;;;;;;;11.15;6.32;;;;;;;8.62;100.00;98870.03;15288354;19;20018;-84
2022/10/13 02:14:43;;;;;;;9.57;5.88;;;;;;;8.58;100.00;98873.97;15294941;19;20347;-82
2022/10/13 02:20:14;;;;;;;12.87;6.27;;;;;;;8.56;100.00;98873.25;15292706;19;20081;-80
2022/10/13 02:25:39;;;;;;;12.70;6.75;;;;;;;8.54;100.00;98869.84;15288426;19;20018;-81
2022/10/13 02:31:05;;;;;;;10.27;5.97;;;;;;;8.51;100.00;98859.41;15294773;19;20025;-81
2022/10/13 02:36:33;;;;;;;10.73;6.80;;;;;;;8.46;100.00;98856.25;15288957;19;20002;-82
2022/10/13 02:41:58;;;;;;;11.98;7.53;;;;;;;8.43;100.00;98854.69;15285367;19;20035;-79
2022/10/13 02:47:29;;;;;;;11.70;8.00;;;;;;;8.43;100.00;98857.38;15299223;19;20035;-78
2022/10/13 02:52:56;;;;;;;14.60;8.37;;;;;;;8.43;100.00;98867.25;15345076;19;20011;-77
2022/10/13 02:58:24;;;;;;;13.70;8.60;;;;;;;8.42;100.00;98855.66;15285086;19;20477;-79
2022/10/13 03:03:50;;;;;;;11.93;8.77;;;;;;;8.44;100.00;98855.53;15286190;19;20039;-81
2022/10/13 03:09:17;;;;;;;11.60;8.40;;;;;;;8.42;100.00;98852.13;15283434;19;20406;-81
2022/10/13 03:14:42;;;;;;;13.57;9.23;;;;;;;8.41;100.00;98853.13;15288341;19;20010;-81
2022/10/13 03:20:06;;;;;;;12.55;8.38;;;;;;;8.38;100.00;98845.34;15291907;19;20082;-81
2022/10/13 03:25:33;;;;;;;14.20;8.68;;;;;;;8.36;100.00;98850.84;15304228;19;20014;-81
2022/10/13 03:31:08;;;;;;;13.20;9.07;;;;;;;8.32;100.00;98850.25;15303893;19;20492;-81
2022/10/13 03:36:35;;;;;;;16.80;10.10;;;;;;;8.29;100.00;98839.78;15309983;19;20390;-81
2022/10/13 03:42:02;;;;;;;13.38;9.55;;;;;;;8.30;100.00;98841.50;15299477;19;20026;-81
2022/10/13 03:47:34;;;;;;;17.55;10.70;;;;;;;8.30;100.00;98846.03;15300498;19;20362;-80
2022/10/13 03:53:00;;;;;;;15.93;11.35;;;;;;;8.26;100.00;98847.28;15308365;19;20017;-81
2022/10/13 03:58:28;;;;;;;17.83;12.40;;;;;;;8.25;100.00;98841.06;15307681;19;20007;-81
2022/10/13 04:03:55;;;;;;;17.88;12.13;;;;;;;8.29;100.00;98844.31;15312375;19;20021;-80
2022/10/13 04:09:21;;;;;;;19.20;13.60;;;;;;;8.31;100.00;98842.34;15304233;19;20054;-80
2022/10/13 04:14:49;;;;;;;23.30;14.82;;;;;;;8.33;100.00;98843.06;15305953;19;20023;-80
2022/10/13 04:20:16;;;;;;;23.13;15.77;;;;;;;8.34;100.00;98836.72;15318624;19;20034;-81
2022/10/13 04:25:41;;;;;;;23.98;15.73;;;;;;;8.37;100.00;98827.53;15319656;19;20025;-79
2022/10/13 04:31:10;;;;;;;21.75;14.98;;;;;;;8.37;100.00;98835.59;15310798;19;20074;-81
2022/10/13 04:36:35;;;;;;;26.08;16.33;;;;;;;8.38;100.00;98822.00;15312249;19;20011;-80
2022/10/13 04:41:59;;;;;;;21.23;14.10;;;;;;;8.37;100.00;98808.75;15304949;19;20011;-79
2022/10/13 04:47:26;;;;;;;21.33;14.38;;;;;;;8.38;100.00;98805.06;15296865;19;20014;-79
2022/10/13 04:52:53;;;;;;;23.17;14.75;;;;;;;8.37;100.00;98814.94;15305047;19;20016;-79
2022/10/13 04:58:18;;;;;;;26.98;16.58;;;;;;;8.39;100.00;98804.91;15300810;19;20014;-81
2022/10/13 05:03:47;;;;;;;26.48;17.20;;;;;;;8.40;100.00;98811.16;15300103;19;20844;-79
2022/10/13 05:09:17;;;;;;;26.35;17.30;;;;;;;8.41;100.00;98811.00;15299156;19;20026;-80
2022/10/13 05:14:41;;;;;;;34.47;21.45;;;;;;;8.45;100.00;98819.63;15297378;19;20002;-80
2022/10/13 05:20:10;;;;;;;34.38;21.40;;;;;;;8.54;100.00;98826.88;15285308;19;20021;-80
2022/10/13 05:25:34;;;;;;;29.02;20.55;;;;;;;8.54;100.00;98829.56;15294660;19;20014;-79
2022/10/13 05:31:10;;;;;;;32.85;21.63;;;;;;;8.62;100.00;98835.13;15291354;19;20019;-78
2022/10/13 05:36:41;;;;;;;31.77;19.80;;;;;;;8.62;100.00;98831.56;15295503;19;20018;-79
2022/10/13 05:42:06;;;;;;;27.25;17.90;;;;;;;8.62;100.00;98829.75;15290986;19;20020;-80
2022/10/13 05:47:37;;;;;;;27.58;17.85;;;;;;;8.62;100.00;98832.44;15341357;19;20022;-80
2022/10/13 05:53:04;;;;;;;24.53;16.80;;;;;;;8.62;100.00;98831.56;15309116;19;20085;-80
2022/10/13 05:58:30;;;;;;;26.23;16.77;;;;;;;8.61;100.00;98833.41;15306805;19;20446;-79
2022/10/13 06:03:58;;;;;;;21.50;14.55;;;;;;;8.64;100.00;98837.66;15303606;19;20015;-81
2022/10/13 06:09:25;;;;;;;22.58;14.65;;;;;;;8.69;100.00;98835.41;15304541;19;20027;-80
2022/10/13 06:20:34;;;;;;;25.60;16.10;;;;;;;8.84;100.00;98837.66;15294725;19;20586;-80
2022/10/13 06:26:02;;;;;;;23.75;15.73;;;;;;;8.94;100.00;98833.16;15289129;19;20007;-80
2022/10/13 06:31:27;;;;;;;20.67;14.23;;;;;;;9.06;100.00;98836.56;15286704;19;20025;-81
2022/10/13 06:36:51;;;;;;;20.38;14.43;;;;;;;9.17;100.00;98841.81;15283231;19;20015;-79
2022/10/13 06:42:19;;;;;;;22.77;14.32;;;;;;;9.32;100.00;98844.06;15286569;19;20017;-81
2022/10/13 06:47:54;;;;;;;17.05;13.27;;;;;;;9.41;100.00;98843.19;15285423;19;20022;-81
2022/10/13 06:53:19;;;;;;;19.80;13.32;;;;;;;9.51;100.00;98846.72;15285468;19;20015;-82
2022/10/13 06:58:48;;;;;;;19.17;13.05;;;;;;;9.61;100.00;98835.94;15301086;19;20760;-81
2022/10/13 07:04:13;;;;;;;21.55;13.43;;;;;;;9.71;100.00;98825.13;15305716;19;20682;-81
2022/10/13 07:09:40;;;;;;;19.23;13.23;;;;;;;9.84;100.00;98825.66;15301370;19;20018;-80
2022/10/13 07:15:08;;;;;;;15.80;12.15;;;;;;;9.97;100.00;98813.72;15304111;19;20375;-81
2022/10/13 07:20:34;;;;;;;19.52;13.13;;;;;;;10.06;100.00;98818.22;15292565;19;20017;-79
2022/10/13 07:26:00;;;;;;;19.60;12.23;;;;;;;10.19;100.00;98820.59;15294061;19;20376;-81
2022/10/13 07:31:28;;;;;;;18.33;12.73;;;;;;;10.33;100.00;98803.06;15294044;19;20014;-80
2022/10/13 07:36:53;;;;;;;18.75;11.57;;;;;;;10.54;100.00;98807.38;15301520;19;20002;-80
2022/10/13 07:42:18;;;;;;;15.50;11.10;;;;;;;10.68;100.00;98804.16;15295190;19;20053;-81
2022/10/13 07:47:45;;;;;;;16.00;10.50;;;;;;;10.85;100.00;98790.88;15296306;19;20074;-80
2022/10/13 07:53:10;;;;;;;16.30;10.55;;;;;;;11.00;100.00;98789.31;15297485;19;20069;-80
2022/10/13 07:58:35;;;;;;;15.32;10.57;;;;;;;11.19;100.00;98780.19;15298236;19;20011;-79
2022/10/13 08:04:03;;;;;;;13.50;9.88;;;;;;;11.34;100.00;98776.94;15298633;19;20400;-78
2022/10/13 08:09:28;;;;;;;13.75;10.18;;;;;;;11.49;100.00;98767.28;15299428;19;20010;-80
2022/10/13 08:14:52;;;;;;;13.68;10.20;;;;;;;11.65;100.00;98771.91;15300930;19;20047;-80
2022/10/13 08:20:25;;;;;;;13.55;9.73;;;;;;;11.81;100.00;98751.44;15299466;19;20011;-81
2022/10/13 08:26:01;;;;;;;15.80;10.13;;;;;;;11.95;100.00;98756.19;15295701;19;20006;-80
2022/10/13 08:31:26;;;;;;;12.05;9.23;;;;;;;12.07;100.00;98748.69;15292801;19;20038;-80
2022/10/13 08:36:55;;;;;;;11.45;8.82;;;;;;;12.22;100.00;98751.63;15292907;19;20011;-82
2022/10/13 08:42:26;;;;;;;14.38;9.23;;;;;;;12.35;100.00;98740.34;15296565;19;20014;-81
2022/10/13 08:48:02;;;;;;;11.15;8.60;;;;;;;12.54;100.00;98744.59;15295716;19;20014;-80
2022/10/13 08:53:33;;;;;;;15.30;8.57;;;;;;;12.67;100.00;98735.16;15296439;19;20010;-82
2022/10/13 08:59:00;;;;;;;14.50;8.90;;;;;;;12.81;100.00;98721.00;15297530;19;20010;-82
2022/10/13 09:04:40;;;;;;;12.80;8.90;;;;;;;12.99;100.00;98715.41;15294564;19;20279;-82
2022/10/13 09:10:08;;;;;;;11.52;8.13;;;;;;;13.11;100.00;98707.81;15292683;19;20020;-84
2022/10/13 09:15:33;;;;;;;13.90;8.02;;;;;;;13.23;100.00;98711.81;15296274;19;20470;-81
2022/10/13 09:21:18;;;;;;;12.63;8.07;;;;;;;13.43;100.00;98699.81;15291901;19;20090;-82
2022/10/13 09:26:48;;;;;;;11.90;8.00;;;;;;;13.53;100.00;98709.44;15298601;19;20030;-83
2022/10/13 09:32:17;;;;;;;14.70;8.82;;;;;;;13.54;100.00;98713.84;15300712;19;20014;-83
2022/10/13 09:37:45;;;;;;;;;;;;;;;13.60;100.00;98711.44;15299661;19;20024;-82
2022/10/13 09:43:29;;;;;;;14.52;9.00;;;;;;;13.64;100.00;98707.38;15301333;19;19951;-81
2022/10/13 09:49:05;;;;;;;11.82;8.57;;;;;;;13.75;100.00;98706.19;15348878;19;20018;-82
2022/10/13 09:54:39;;;;;;;11.65;7.90;;;;;;;13.87;100.00;98707.47;15304449;19;20035;-83
2022/10/13 10:00:20;;;;;;;13.48;8.50;;;;;;;13.96;100.00;98692.00;15303176;19;20010;-82
2022/10/13 10:05:51;;;;;;;12.50;7.88;;;;;;;14.05;100.00;98690.97;15284082;19;20011;-82
2022/10/13 10:11:20;;;;;;;13.60;8.50;;;;;;;14.10;100.00;98685.84;15282398;19;20011;-82
2022/10/13 10:16:54;;;;;;;9.57;7.55;;;;;;;14.17;100.00;98686.81;15288385;19;20025;-81
2022/10/13 10:22:27;;;;;;;11.38;8.07;;;;;;;14.25;100.00;98675.09;15286180;19;20474;-80
2022/10/13 10:28:07;;;;;;;10.90;7.30;;;;;;;14.37;100.00;98680.09;15289640;19;20014;-83
2022/10/13 10:33:44;;;;;;;9.23;7.00;;;;;;;14.40;100.00;98672.47;15339586;19;20022;-82
2022/10/13 10:39:19;;;;;;;10.07;6.95;;;;;;;14.47;100.00;98662.59;15330384;19;20010;-82
2022/10/13 10:44:49;;;;;;;9.88;6.13;;;;;;;14.71;100.00;98655.31;15309999;19;20006;-82
2022/10/13 10:50:20;;;;;;;9.57;5.63;;;;;;;14.78;100.00;98645.41;15309776;19;20077;-83
2022/10/13 10:55:54;;;;;;;9.82;5.15;;;;;;;14.92;100.00;98640.22;15309346;19;20007;-82
2022/10/13 11:01:33;;;;;;;7.32;4.75;;;;;;;15.17;100.00;98626.41;15300198;19;20014;-82
2022/10/13 11:07:02;;;;;;;8.25;4.75;;;;;;;15.28;100.00;98622.41;15305323;19;20054;-81
2022/10/13 11:12:46;;;;;;;8.07;4.70;;;;;;;15.26;100.00;98611.72;15305784;19;20005;-81
2022/10/13 11:19:04;;;;;;;6.47;4.05;;;;;;;15.36;100.00;98617.69;15303933;19;20025;-82
2022/10/13 11:24:58;;;;;;;7.22;4.43;;;;;;;15.42;100.00;98613.38;15299049;19;20445;-81
2022/10/13 11:31:04;;;;;;;5.88;4.32;;;;;;;15.62;100.00;98596.53;15303435;19;20555;-81
2022/10/13 11:36:36;;;;;;;6.13;4.20;;;;;;;15.83;100.00;98584.84;15314975;19;20018;-82
2022/10/13 11:42:14;;;;;;;7.45;4.10;;;;;;;15.91;100.00;98573.06;15314908;19;20018;-82
2022/10/13 11:47:56;;;;;;;7.38;4.45;;;;;;;15.88;100.00;98568.03;15321198;19;20019;-83
2022/10/13 11:59:21;;;;;;;7.95;4.50;;;;;;;15.65;100.00;98572.56;15301927;19;20473;-82
2022/10/13 12:04:48;;;;;;;7.68;4.20;;;;;;;15.63;100.00;98565.63;15299137;19;20139;-82
2022/10/13 12:10:20;;;;;;;8.65;5.05;;;;;;;15.52;100.00;98558.81;15298653;19;20018;-82
2022/10/13 12:15:51;;;;;;;8.02;4.13;;;;;;;15.55;100.00;98553.00;15298961;19;20470;-80
2022/10/13 12:21:18;;;;;;;5.85;3.70;;;;;;;15.65;100.00;98539.09;15313414;19;20075;-82
2022/10/13 12:26:43;;;;;;;7.72;4.15;;;;;;;15.82;100.00;98526.13;15313416;19;20038;-82
2022/10/13 12:32:22;;;;;;;6.25;4.05;;;;;;;15.81;100.00;98529.91;15308322;19;20030;-81
2022/10/13 12:37:47;;;;;;;7.20;3.50;;;;;;;15.92;100.00;98532.16;15302925;19;20394;-81
2022/10/13 12:43:18;;;;;;;5.05;3.50;;;;;;;15.97;100.00;98520.69;15300771;19;20014;-82
2022/10/13 12:48:52;;;;;;;6.97;3.60;;;;;;;15.95;100.00;98509.16;15293573;19;20014;-81
2022/10/13 12:54:19;;;;;;;7.03;3.58;;;;;;;16.01;100.00;98511.94;15298384;19;20015;-81
2022/10/13 12:59:45;;;;;;;5.88;3.50;;;;;;;16.11;100.00;98505.34;15296721;19;20020;-82
2022/10/13 13:05:38;;;;;;;5.15;3.05;;;;;;;16.23;100.00;98501.06;15304349;19;20031;-81
2022/10/13 13:11:23;;;;;;;5.97;2.95;;;;;;;16.32;100.00;98494.44;15312666;19;20007;-81
2022/10/13 13:17:09;;;;;;;5.10;2.80;;;;;;;16.60;100.00;98493.63;15303609;19;20034;-82
2022/10/13 13:23:00;;;;;;;4.10;2.70;;;;;;;16.64;100.00;98489.44;15294616;19;20014;-82
2022/10/13 13:28:25;;;;;;;3.67;2.65;;;;;;;16.87;100.00;98491.06;15298296;19;20014;-82
2022/10/13 13:33:54;;;;;;;4.15;2.50;;;;;;;16.74;100.00;98485.53;15321018;19;20010;-86
2022/10/13 13:39:23;;;;;;;5.57;2.53;;;;;;;16.78;100.00;98475.94;15352842;19;20002;-83
2022/10/13 13:44:48;;;;;;;4.72;2.70;;;;;;;16.71;100.00;98475.06;15290660;19;20010;-82
2022/10/13 13:50:21;;;;;;;4.60;2.70;;;;;;;16.97;100.00;98470.84;15290921;19;20042;-81
2022/10/13 13:55:49;;;;;;;3.83;2.30;;;;;;;17.12;100.00;98471.53;15287792;19;20010;-81
2022/10/13 14:01:14;;;;;;;4.40;2.38;;;;;;;17.18;100.00;98470.72;15289513;19;20558;-81
2022/10/13 14:06:39;;;;;;;4.25;2.45;;;;;;;17.34;100.00;98474.16;15290009;19;20018;-80
2022/10/13 14:12:06;;;;;;;6.07;2.40;;;;;;;17.38;100.00;98456.34;15284732;19;20019;-79
2022/10/13 14:17:31;;;;;;;3.55;2.38;;;;;;;17.19;100.00;98455.22;15282948;19;20031;-79
2022/10/13 14:22:55;;;;;;;6.15;2.33;;;;;;;17.03;100.00;98445.53;15287720;19;20022;-80
2022/10/13 14:28:23;;;;;;;4.25;2.50;;;;;;;16.78;100.00;98440.56;15282793;19;20404;-78
2022/10/13 14:33:47;;;;;;;5.35;2.50;;;;;;;16.67;100.00;98449.28;15265947;19;20019;-82
2022/10/13 14:39:17;;;;;;;4.95;2.60;;;;;;;16.57;100.00;98461.38;15287246;19;20038;-83
2022/10/13 14:44:44;;;;;;;4.15;2.90;;;;;;;16.40;100.00;98460.00;15282600;19;20040;-83
2022/10/13 14:50:10;;;;;;;4.13;2.83;;;;;;;16.30;100.00;98466.59;15285019;19;20684;-82
2022/10/13 14:55:39;;;;;;;4.28;2.60;;;;;;;16.20;100.00;98457.97;15283961;19;20014;-83
2022/10/13 15:01:08;;;;;;;4.88;2.78;;;;;;;16.06;100.00;98467.03;15283206;19;20009;-79
2022/10/13 15:06:33;;;;;;;3.97;2.33;;;;;;;15.97;100.00;98469.91;15289612;19;20080;-80
2022/10/13 15:11:58;;;;;;;2.40;1.67;;;;;;;15.86;100.00;98470.41;15290282;19;20017;-79
2022/10/13 15:17:26;;;;;;;4.20;1.70;;;;;;;15.72;100.00;98472.97;15297644;19;20019;-79
2022/10/13 15:22:53;;;;;;;3.42;1.60;;;;;;;15.56;100.00;98468.63;15314144;19;20017;-78
2022/10/13 15:28:17;;;;;;;6.18;1.55;;;;;;;15.45;100.00;98476.44;15335702;19;20052;-80
2022/10/13 15:33:47;;;;;;;2.95;1.50;;;;;;;15.31;100.00;98472.72;15311495;19;20196;-79
2022/10/13 15:39:13;;;;;;;4.57;1.63;;;;;;;15.20;100.00;98474.91;15306799;19;20031;-79
2022/10/13 15:44:38;;;;;;;4.57;1.90;;;;;;;15.08;100.00;98476.41;15301001;19;20489;-79
2022/10/13 15:50:28;;;;;;;4.72;1.85;;;;;;;14.96;100.00;98473.34;15300594;19;20015;-78
2022/10/13 15:55:54;;;;;;;6.55;2.10;;;;;;;14.85;100.00;98482.78;15301995;19;20516;-78
2022/10/13 16:01:18;;;;;;;5.07;2.35;;;;;;;14.79;100.00;98483.56;15292896;19;20006;-79
2022/10/13 16:06:46;;;;;;;4.28;2.03;;;;;;;14.69;100.00;98483.81;15297185;19;20032;-79
2022/10/13 16:12:10;;;;;;;5.35;2.20;;;;;;;14.60;100.00;98483.03;15298570;19;20014;-81
2022/10/13 16:17:37;;;;;;;4.43;2.10;;;;;;;14.56;100.00;98499.84;15299825;19;20019;-79
2022/10/13 16:23:04;;;;;;;5.97;2.30;;;;;;;14.50;100.00;98493.31;15292257;19;20565;-78
2022/10/13 16:28:29;;;;;;;3.80;2.00;;;;;;;14.42;100.00;98483.38;15298172;19;20018;-81
2022/10/13 16:33:54;;;;;;;5.60;2.33;;;;;;;14.38;100.00;98492.94;15289935;19;20082;-81
2022/10/13 16:39:23;;;;;;;6.18;2.45;;;;;;;14.35;100.00;98487.88;15289826;19;20481;-79
2022/10/13 16:44:47;;;;;;;6.40;2.35;;;;;;;14.36;100.00;98497.69;15288225;19;20011;-79
2022/10/13 16:50:12;;;;;;;6.43;2.80;;;;;;;14.28;100.00;98486.94;15299668;19;20022;-80
2022/10/13 16:55:39;;;;;;;5.65;2.63;;;;;;;14.28;100.00;98481.50;15293599;19;20023;-80
2022/10/13 17:01:07;;;;;;;4.78;2.75;;;;;;;14.21;100.00;98477.81;15295627;19;20027;-79
2022/10/13 17:06:38;;;;;;;5.82;3.08;;;;;;;14.18;100.00;98476.34;15290555;19;20090;-77
2022/10/13 17:12:07;;;;;;;9.50;4.15;;;;;;;14.14;100.00;98491.25;15296625;19;20466;-79
2022/10/13 17:17:33;;;;;;;6.43;3.58;;;;;;;14.12;100.00;98480.63;15301447;19;20020;-80
2022/10/13 17:28:45;;;;;;;6.40;3.60;;;;;;;14.02;100.00;98493.56;15355296;19;20014;-78
2022/10/13 17:34:10;;;;;;;6.13;3.63;;;;;;;13.95;100.00;98492.59;15289943;19;20283;-77
2022/10/13 17:39:35;;;;;;;4.05;3.10;;;;;;;13.89;100.00;98493.34;15278990;19;20018;-77
2022/10/13 17:45:03;;;;;;;6.63;3.70;;;;;;;13.83;100.00;98493.03;15281192;19;20011;-77
2022/10/13 17:50:28;;;;;;;6.25;3.75;;;;;;;13.74;100.00;98502.25;15286900;19;20015;-79
2022/10/13 17:55:53;;;;;;;5.28;3.70;;;;;;;13.67;100.00;98499.41;15285794;19;20477;-78
2022/10/13 18:01:24;;;;;;;6.68;3.85;;;;;;;13.68;100.00;98500.25;15284090;19;20010;-77
2022/10/13 18:06:50;;;;;;;8.17;4.60;;;;;;;13.64;100.00;98498.94;15302018;19;20026;-80
2022/10/13 18:12:15;;;;;;;6.38;5.20;;;;;;;13.65;100.00;98496.03;15303101;19;20347;-80
2022/10/13 18:17:43;;;;;;;7.18;4.90;;;;;;;13.62;100.00;98493.69;15304663;19;20050;-80
2022/10/13 18:23:38;;;;;;;8.20;5.47;;;;;;;13.56;100.00;98500.69;15324074;19;20059;-81
2022/10/13 18:29:01;;;;;;;7.47;5.07;;;;;;;13.49;100.00;98494.28;15318899;19;20050;-80
2022/10/13 18:34:31;;;;;;;6.82;4.72;;;;;;;13.47;100.00;98492.78;15330093;19;20027;-81
2022/10/13 18:39:55;;;;;;;8.77;4.88;;;;;;;13.44;100.00;98490.41;15311417;19;20548;-76
2022/10/13 18:45:23;;;;;;;9.60;4.40;;;;;;;13.45;100.00;98498.38;15281797;19;20031;-78
2022/10/13 18:50:52;;;;;;;7.10;4.53;;;;;;;13.42;100.00;98498.72;15292917;19;20046;-77
2022/10/13 18:56:30;;;;;;;8.88;4.63;;;;;;;13.39;100.00;98494.53;15307348;19;20074;-79
2022/10/13 19:02:01;;;;;;;8.30;4.50;;;;;;;13.30;100.00;98489.28;15315592;19;20414;-80
2022/10/13 19:07:28;;;;;;;6.93;4.35;;;;;;;13.26;100.00;98483.38;15309063;19;20027;-81
2022/10/13 19:12:57;;;;;;;6.73;4.60;;;;;;;13.19;100.00;98483.25;15321901;19;20501;-80
2022/10/13 19:18:21;;;;;;;7.15;5.00;;;;;;;13.07;100.00;98473.84;15308801;19;20294;-81
2022/10/13 19:23:50;;;;;;;6.45;4.70;;;;;;;13.03;100.00;98467.94;15308248;19;20368;-79
2022/10/13 19:29:15;;;;;;;7.88;4.90;;;;;;;12.94;100.00;98477.94;15306320;19;20014;-79
2022/10/13 19:34:40;;;;;;;7.70;4.60;;;;;;;12.86;100.00;98486.09;15304535;19;20473;-82
2022/10/13 19:40:09;;;;;;;7.72;5.05;;;;;;;12.73;100.00;98483.94;15300559;19;20069;-83
2022/10/13 19:45:41;;;;;;;9.13;5.80;;;;;;;12.64;100.00;98476.88;15298065;19;20026;-80
2022/10/13 19:51:10;;;;;;;8.02;5.28;;;;;;;12.45;100.00;98460.03;15303187;19;20015;-80
2022/10/13 19:56:41;;;;;;;8.90;5.45;;;;;;;12.41;100.00;98468.63;15321716;19;20105;-79
2022/10/13 20:02:06;;;;;;;8.43;5.90;;;;;;;12.42;100.00;98460.38;15362917;19;20010;-83
2022/10/13 20:07:32;;;;;;;9.65;5.55;;;;;;;12.43;100.00;98461.19;15313053;19;20093;-80
2022/10/13 20:13:00;;;;;;;7.65;5.32;;;;;;;12.39;100.00;98465.28;15307416;19;20010;-80
2022/10/13 20:18:26;;;;;;;8.40;5.32;;;;;;;12.28;100.00;98463.78;15297903;19;20172;-80
2022/10/13 20:23:52;;;;;;;8.25;5.53;;;;;;;12.16;100.00;98461.41;15291729;19;20042;-83
2022/10/13 20:29:27;;;;;;;7.80;5.95;;;;;;;12.08;100.00;98457.88;15287591;19;20018;-55
2022/10/13 20:34:51;;;;;;;7.45;5.80;;;;;;;12.04;100.00;98461.94;15276118;19;20011;-57
2022/10/13 20:40:17;;;;;;;10.15;6.10;;;;;;;12.02;100.00;98475.59;15275718;19;20023;-51
2022/10/13 20:45:44;;;;;;;7.38;5.63;;;;;;;12.00;100.00;98467.69;15271727;19;20035;-56
2022/10/13 20:51:09;;;;;;;11.35;6.30;;;;;;;11.98;100.00;98463.47;15263689;19;20517;-55
2022/10/13 20:56:34;;;;;;;7.97;5.90;;;;;;;11.95;100.00;98472.69;15268331;19;20014;-55
2022/10/13 21:02:02;;;;;;;8.75;5.78;;;;;;;11.93;100.00;98474.75;15273303;19;20019;-55
2022/10/13 21:07:27;;;;;;;10.18;6.35;;;;;;;11.92;100.00;98481.16;15269761;19;20019;-56
2022/10/13 21:12:52;;;;;;;7.43;5.60;;;;;;;11.86;100.00;98479.97;15269019;19;20475;-53
2022/10/13 21:18:19;;;;;;;8.75;6.15;;;;;;;11.88;100.00;98485.19;15268948;19;20827;-55
2022/10/13 21:23:45;;;;;;;9.90;5.80;;;;;;;11.87;100.00;98494.31;15266824;19;20015;-55
2022/10/13 21:29:09;;;;;;;8.05;5.75;;;;;;;11.88;100.00;98480.63;15265767;19;20010;-57
2022/10/13 21:34:37;;;;;;;7.80;5.57;;;;;;;11.89;100.00;98476.09;15271123;19;20007;-56
2022/10/13 21:40:01;;;;;;;8.60;6.00;;;;;;;11.84;100.00;98467.63;15270814;19;20023;-55
2022/10/13 21:45:26;;;;;;;8.18;5.68;;;;;;;11.83;100.00;98476.75;15268055;19;20361;-54
2022/10/13 21:50:53;;;;;;;8.55;5.47;;;;;;;11.79;100.00;98476.25;15271192;19;20014;-57
2022/10/13 21:56:20;;;;;;;10.63;5.97;;;;;;;11.77;100.00;98480.13;15264116;19;20025;-56
2022/10/13 22:01:45;;;;;;;8.35;5.68;;;;;;;11.80;100.00;98467.13;15266718;19;20022;-56
2022/10/13 22:07:13;;;;;;;8.07;5.50;;;;;;;11.83;100.00;98466.81;15265673;19;20492;-56
2022/10/13 22:12:37;;;;;;;7.88;5.88;;;;;;;11.82;100.00;98458.88;15268604;19;20488;-54
2022/10/13 22:18:02;;;;;;;9.85;6.00;;;;;;;11.83;100.00;98460.56;15266500;19;20026;-57
2022/10/13 22:23:29;;;;;;;8.30;6.07;;;;;;;11.84;100.00;98456.84;15267632;19;20357;-54
2022/10/13 22:28:54;;;;;;;9.52;6.60;;;;;;;11.86;100.00;98460.22;15275177;19;20031;-57
2022/10/13 22:34:19;;;;;;;8.75;6.28;;;;;;;11.88;100.00;98452.81;15279227;19;20017;-56
2022/10/13 22:39:47;;;;;;;8.13;5.68;;;;;;;11.87;100.00;98438.47;15277756;19;20919;-55
2022/10/13 22:45:12;;;;;;;9.02;5.75;;;;;;;11.89;100.00;98443.69;15282179;19;20022;-55
2022/10/13 22:50:36;;;;;;;6.93;5.70;;;;;;;11.89;100.00;98430.19;15284816;19;20354;-56
2022/10/13 22:56:07;;;;;;;8.13;5.80;;;;;;;11.88;100.00;98425.81;15283115;19;20043;-57
2022/10/13 23:01:33;;;;;;;7.97;6.03;;;;;;;11.84;100.00;98435.25;15278593;19;20022;-56
2022/10/13 23:06:57;;;;;;;9.07;6.30;;;;;;;11.81;100.00;98435.59;15272166;19;20014;-56
2022/10/13 23:12:25;;;;;;;8.55;6.50;;;;;;;11.80;100.00;98429.34;15283889;19;20033;-56
2022/10/13 23:17:49;;;;;;;8.20;6.22;;;;;;;11.76;100.00;98433.38;15281542;19;20019;-57
2022/10/13 23:23:14;;;;;;;9.25;6.25;;;;;;;11.75;100.00;98425.47;15282490;19;20043;-56
2022/10/13 23:28:42;;;;;;;8.50;6.50;;;;;;;11.74;100.00;98430.03;15279116;19;20042;-56
2022/10/13 23:34:07;;;;;;;8.27;6.07;;;;;;;11.70;100.00;98434.06;15272852;19;20014;-57
2022/10/13 23:39:31;;;;;;;9.48;6.00;;;;;;;11.67;100.00;98421.78;15271145;19;20025;-57
2022/10/13 23:44:59;;;;;;;8.30;6.50;;;;;;;11.64;100.00;98435.59;15279568;19;20383;-58
2022/10/13 23:50:23;;;;;;;9.27;6.93;;;;;;;11.61;100.00;98441.31;15279924;19;20023;-51
2022/10/13 23:55:49;;;;;;;9.80;6.95;;;;;;;11.57;100.00;98437.28;15280113;19;20093;-57
